Time;durP1;ratioP1;P1;durP2;ratioP2;P2;SDS_P1;SDS_P2;PMS_P1;PMS_P2;Temp;Humidity;BMP_temperature;BMP_pressure;BME280_temperature;BME280_humidity;BME280_pressure;Samples;Min_cycle;Max_cycle;Signal;HPM_P1;HPM_P2
2023/05/27 00:01:12;;;;;;;12.75;5.63;;;;;;;16.70;82.26;99294.53;5030922;28;20014;-71
2023/05/27 00:03:38;;;;;;;6.18;5.05;;;;;;;16.73;82.60;99298.63;5029940;28;20036;-71
2023/05/27 00:06:03;;;;;;;8.30;5.45;;;;;;;16.73;82.45;99284.50;5031024;28;20432;-71
2023/05/27 00:08:29;;;;;;;7.75;5.72;;;;;;;16.83;81.95;99286.66;5031059;28;20032;-71
2023/05/27 00:10:54;;;;;;;8.65;5.63;;;;;;;16.79;81.97;99280.16;5030914;28;20033;-71
2023/05/27 00:13:20;;;;;;;11.23;6.07;;;;;;;16.86;81.28;99279.44;5029884;28;20030;-71
2023/05/27 00:15:45;;;;;;;11.88;5.22;;;;;;;16.94;79.76;99287.63;5029534;28;20512;-71
2023/05/27 00:18:11;;;;;;;7.63;5.07;;;;;;;16.98;80.01;99284.84;5031039;28;20033;-71
2023/05/27 00:20:36;;;;;;;5.57;4.63;;;;;;;17.10;79.36;99279.00;5030875;28;20136;-71
2023/05/27 00:23:02;;;;;;;13.32;4.72;;;;;;;17.29;78.46;99276.38;5031123;28;20025;-71
2023/05/27 00:25:27;;;;;;;6.28;4.50;;;;;;;17.20;77.82;99269.00;5029535;28;20033;-71
2023/05/27 00:27:54;;;;;;;8.68;4.30;;;;;;;17.07;78.52;99276.91;5030872;28;20033;-71
2023/05/27 00:30:20;;;;;;;6.53;4.70;;;;;;;16.84;79.43;99280.66;5028447;28;20120;-71
2023/05/27 00:32:45;;;;;;;10.82;4.80;;;;;;;16.57;81.47;99274.19;5029537;28;20120;-71
2023/05/27 00:35:11;;;;;;;6.90;5.32;;;;;;;16.63;81.75;99264.19;5033960;28;20033;-71
2023/05/27 00:37:37;;;;;;;6.22;5.35;;;;;;;16.92;81.02;99275.06;5034675;28;20555;-71
2023/05/27 00:40:04;;;;;;;7.13;5.03;;;;;;;16.98;80.97;99265.88;5033197;28;20037;-71
2023/05/27 00:42:30;;;;;;;7.15;5.18;;;;;;;17.02;81.12;99271.59;5035098;28;20447;-71
2023/05/27 00:44:55;;;;;;;12.10;4.88;;;;;;;16.90;81.43;99269.00;5034539;28;20029;-71
2023/05/27 00:47:23;;;;;;;14.18;6.15;;;;;;;16.88;81.67;99269.38;5032076;28;20087;-71
2023/05/27 00:49:49;;;;;;;8.82;4.75;;;;;;;17.09;80.89;99262.41;5033150;28;20025;-71
2023/05/27 00:52:15;;;;;;;5.32;4.63;;;;;;;17.15;80.64;99262.88;5034158;28;20174;-71
2023/05/27 00:54:41;;;;;;;7.15;5.70;;;;;;;17.18;80.26;99253.63;5034309;28;20037;-71
2023/05/27 00:57:06;;;;;;;7.18;5.03;;;;;;;17.14;80.72;99253.59;5034094;28;20029;-71
2023/05/27 00:59:32;;;;;;;7.68;5.68;;;;;;;17.11;81.66;99248.72;5034235;28;20108;-71
2023/05/27 01:01:57;;;;;;;11.00;5.95;;;;;;;17.14;82.93;99255.59;5034062;28;20026;-71
2023/05/27 01:04:25;;;;;;;8.90;5.38;;;;;;;17.24;83.31;99260.56;5033081;28;20025;-71
2023/05/27 01:07:16;;;;;;;7.15;5.20;;;;;;;17.36;83.88;99254.66;5033999;28;20504;-71
2023/05/27 01:10:19;;;;;;;17.33;5.10;;;;;;;17.44;83.52;99249.91;5032787;28;20040;-71
2023/05/27 01:12:50;;;;;;;11.20;5.50;;;;;;;17.44;83.99;99249.91;5033714;28;20037;-71
2023/05/27 01:15:17;;;;;;;9.27;5.30;;;;;;;17.43;83.38;99245.44;5033983;28;20059;-71
2023/05/27 01:17:47;;;;;;;18.60;6.78;;;;;;;17.46;83.38;99241.84;5033859;28;20124;-71
2023/05/27 01:20:14;;;;;;;5.60;5.10;;;;;;;17.55;83.37;99247.16;5033853;28;20021;-71
2023/05/27 01:22:42;;;;;;;5.85;4.85;;;;;;;17.49;83.24;99243.88;5032609;28;20460;-71
2023/05/27 01:25:10;;;;;;;10.48;5.45;;;;;;;17.45;83.84;99242.25;5033746;28;20468;-71
2023/05/27 01:27:40;;;;;;;9.80;5.22;;;;;;;17.37;84.53;99227.19;5033707;28;20511;-71
2023/05/27 01:30:06;;;;;;;7.60;5.30;;;;;;;17.35;84.40;99224.78;5032482;28;20393;-71
2023/05/27 01:32:58;;;;;;;8.05;5.47;;;;;;;17.25;84.44;99231.94;5033493;28;20033;-71
2023/05/27 01:35:31;;;;;;;8.95;5.88;;;;;;;17.19;85.09;99227.81;5033898;28;20488;-71
2023/05/27 01:38:01;;;;;;;9.23;5.75;;;;;;;17.17;84.96;99233.03;5032493;28;20536;-71
2023/05/27 01:40:28;;;;;;;6.03;5.43;;;;;;;17.12;84.97;99228.56;5032231;28;20389;-71
2023/05/27 01:42:57;;;;;;;14.32;5.53;;;;;;;17.24;84.34;99224.63;5033427;28;20013;-71
2023/05/27 01:45:22;;;;;;;7.90;6.40;;;;;;;17.25;85.12;99231.94;5031804;28;20030;-71
2023/05/27 01:47:48;;;;;;;12.05;5.95;;;;;;;17.33;84.14;99232.00;5033327;28;20107;-71
2023/05/27 01:50:13;;;;;;;7.65;6.85;;;;;;;17.40;83.78;99232.88;5033088;28;20030;-71
2023/05/27 01:52:39;;;;;;;7.50;5.80;;;;;;;17.44;83.41;99226.47;5033151;28;20416;-71
2023/05/27 01:55:06;;;;;;;6.70;5.70;;;;;;;17.56;83.28;99226.19;5031991;28;20033;-71
2023/05/27 01:57:32;;;;;;;6.30;5.55;;;;;;;17.40;82.76;99226.44;5033111;28;20571;-71
2023/05/27 01:59:58;;;;;;;7.72;5.65;;;;;;;17.23;82.54;99223.00;5033169;28;20029;-71
2023/05/27 02:02:23;;;;;;;6.82;6.13;;;;;;;17.29;82.32;99229.13;5032931;28;20021;-71
2023/05/27 02:04:48;;;;;;;12.63;5.95;;;;;;;17.34;82.01;99225.97;5031745;28;20056;-71
2023/05/27 02:07:14;;;;;;;7.10;5.93;;;;;;;17.21;81.86;99224.63;5033068;28;20036;-71
2023/05/27 02:09:40;;;;;;;8.48;5.35;;;;;;;17.01;82.46;99229.59;5031627;28;20029;-71
2023/05/27 02:12:06;;;;;;;9.73;6.28;;;;;;;17.19;82.10;99230.66;5031447;28;20033;-71
2023/05/27 02:14:32;;;;;;;6.55;5.32;;;;;;;17.27;81.88;99228.72;5032891;28;20029;-71
2023/05/27 02:16:58;;;;;;;6.55;5.65;;;;;;;17.31;81.39;99232.38;5032733;28;20018;-71
2023/05/27 02:19:24;;;;;;;9.10;6.07;;;;;;;17.34;81.91;99234.44;5032701;28;20455;-71
2023/05/27 02:21:50;;;;;;;9.35;6.80;;;;;;;17.43;81.84;99241.78;5032444;28;20083;-71
2023/05/27 02:24:15;;;;;;;7.63;6.25;;;;;;;17.43;81.54;99236.97;5032647;28;20030;-71
2023/05/27 02:26:41;;;;;;;8.65;5.70;;;;;;;17.46;81.85;99230.53;5031505;28;20021;-71
2023/05/27 02:29:06;;;;;;;6.55;5.78;;;;;;;17.46;81.51;99226.91;5032567;28;20523;-71
2023/05/27 02:31:31;;;;;;;8.75;5.53;;;;;;;17.38;81.87;99224.00;5032444;28;20032;-71
2023/05/27 02:33:57;;;;;;;11.73;6.15;;;;;;;17.48;81.61;99230.16;5032403;28;20033;-71
2023/05/27 02:36:23;;;;;;;8.43;5.53;;;;;;;17.48;81.24;99225.28;5032367;28;20033;-71
2023/05/27 02:38:49;;;;;;;10.88;5.85;;;;;;;17.50;81.08;99231.41;5032281;28;20104;-71
2023/05/27 02:41:14;;;;;;;7.72;5.20;;;;;;;17.36;81.65;99231.22;5032360;28;20220;-71
2023/05/27 02:43:40;;;;;;;6.80;6.10;;;;;;;17.33;81.87;99229.19;5029869;28;20041;-71
2023/05/27 02:46:05;;;;;;;6.45;5.50;;;;;;;17.23;81.38;99228.66;5032133;28;20028;-71
2023/05/27 02:48:31;;;;;;;7.75;5.80;;;;;;;17.22;81.36;99227.03;5032253;28;20061;-71
2023/05/27 02:50:56;;;;;;;7.35;5.50;;;;;;;17.24;81.74;99221.81;5031955;28;20428;-71
2023/05/27 02:53:21;;;;;;;9.02;5.82;;;;;;;17.17;81.63;99218.09;5031915;28;20411;-71
2023/05/27 02:55:47;;;;;;;9.80;5.50;;;;;;;17.11;81.61;99223.28;5030403;28;20373;-71
2023/05/27 02:58:12;;;;;;;11.20;5.90;;;;;;;17.02;82.04;99211.47;5030401;28;20025;-71
2023/05/27 03:00:40;;;;;;;10.52;5.85;;;;;;;16.89;82.20;99216.53;5031913;28;20029;-71
2023/05/27 03:03:06;;;;;;;11.35;5.97;;;;;;;16.80;83.23;99228.13;5031725;28;20052;-71
2023/05/27 03:05:32;;;;;;;6.75;5.40;;;;;;;16.80;83.40;99216.84;5032198;28;20458;-71
2023/05/27 03:07:58;;;;;;;15.07;7.18;;;;;;;16.91;83.22;99229.06;5031762;28;20112;-71
2023/05/27 03:10:23;;;;;;;5.78;5.28;;;;;;;16.84;83.12;99223.31;5031688;28;20021;-71
2023/05/27 03:12:49;;;;;;;10.05;6.35;;;;;;;17.00;83.16;99228.81;5031595;28;20031;-71
2023/05/27 03:15:14;;;;;;;10.43;6.20;;;;;;;17.00;82.78;99230.81;5029160;28;20095;-71
2023/05/27 03:17:40;;;;;;;10.27;6.68;;;;;;;17.01;82.14;99226.78;5031701;28;20032;-71
2023/05/27 03:20:07;;;;;;;7.70;6.22;;;;;;;16.95;82.46;99215.81;5031660;28;20496;-71
2023/05/27 03:22:34;;;;;;;11.50;5.40;;;;;;;16.88;82.99;99229.03;5031368;28;20026;-71
2023/05/27 03:25:00;;;;;;;6.55;5.88;;;;;;;17.04;82.43;99215.53;5031542;28;20025;-71
2023/05/27 03:27:25;;;;;;;10.80;5.72;;;;;;;17.09;82.44;99226.50;5031463;28;20032;-71
2023/05/27 03:29:51;;;;;;;8.68;5.50;;;;;;;17.22;81.26;99227.03;5030209;28;20408;-71
2023/05/27 03:32:16;;;;;;;6.18;5.55;;;;;;;17.31;80.59;99228.75;5031419;28;20021;-71
2023/05/27 03:34:42;;;;;;;8.38;5.57;;;;;;;17.43;80.16;99236.97;5031359;28;20029;-71
2023/05/27 03:37:07;;;;;;;7.07;5.40;;;;;;;17.49;79.44;99232.56;5030075;28;20053;-71
2023/05/27 03:39:33;;;;;;;5.72;5.13;;;;;;;17.59;78.81;99241.56;5031384;28;20022;-71
2023/05/27 03:41:58;;;;;;;6.68;5.63;;;;;;;17.56;78.23;99245.16;5031415;28;20018;-71
2023/05/27 03:44:24;;;;;;;6.35;5.13;;;;;;;17.64;78.20;99249.69;5031162;28;20029;-71
2023/05/27 03:46:49;;;;;;;5.40;4.90;;;;;;;17.61;77.64;99253.28;5029962;28;20515;-71
2023/05/27 03:49:15;;;;;;;7.82;5.63;;;;;;;17.68;77.51;99253.38;5031129;28;20026;-71
2023/05/27 03:51:41;;;;;;;11.52;5.15;;;;;;;17.76;77.82;99255.06;5031067;28;20598;-71
2023/05/27 03:54:07;;;;;;;6.85;5.57;;;;;;;17.66;78.08;99256.56;5031141;28;20026;-71
2023/05/27 03:56:32;;;;;;;7.95;5.97;;;;;;;17.31;78.63;99246.50;5031159;28;20029;-71
2023/05/27 03:58:57;;;;;;;10.48;7.05;;;;;;;17.04;80.26;99249.44;5031127;28;20018;-71
2023/05/27 04:01:23;;;;;;;9.95;7.53;;;;;;;16.93;81.59;99254.94;5029844;28;20424;-71
2023/05/27 04:03:50;;;;;;;8.85;6.05;;;;;;;16.97;82.16;99244.47;5031059;28;20017;-71
2023/05/27 04:06:15;;;;;;;11.48;6.40;;;;;;;17.01;82.62;99244.56;5031104;28;20090;-71
2023/05/27 04:08:41;;;;;;;9.95;7.13;;;;;;;16.93;83.36;99249.28;5033586;28;20100;-71
2023/05/27 04:11:14;;;;;;;8.48;6.03;;;;;;;17.05;83.37;99253.88;5035065;28;20048;-71
2023/05/27 04:13:40;;;;;;;13.57;6.97;;;;;;;17.17;83.03;99252.81;5035062;28;20052;-71
2023/05/27 04:16:07;;;;;;;21.70;7.65;;;;;;;17.18;83.39;99256.44;5035035;28;20029;-71
2023/05/27 04:18:33;;;;;;;12.15;6.60;;;;;;;17.03;84.20;99256.28;5033642;28;20025;-71
2023/05/27 04:20:59;;;;;;;9.63;5.93;;;;;;;17.17;83.59;99263.31;5033729;28;20512;-71
2023/05/27 04:23:25;;;;;;;9.00;6.93;;;;;;;17.04;84.81;99260.72;5023998;28;20021;-71
2023/05/27 04:25:52;;;;;;;11.07;6.95;;;;;;;17.09;84.86;99265.22;5018445;28;20017;-71
2023/05/27 04:28:17;;;;;;;13.40;7.78;;;;;;;17.06;85.42;99272.47;5024455;28;20038;-71
2023/05/27 04:30:45;;;;;;;10.60;6.80;;;;;;;17.04;85.02;99266.38;5019914;28;20094;-71
2023/05/27 04:33:15;;;;;;;7.75;6.95;;;;;;;17.02;84.82;99265.97;5033406;28;20025;-71
2023/05/27 04:35:43;;;;;;;11.95;8.32;;;;;;;17.10;83.78;99267.69;5032413;28;20053;-71
2023/05/27 04:38:16;;;;;;;10.43;9.23;;;;;;;17.08;83.84;99270.09;5034796;28;20025;-71
2023/05/27 04:40:45;;;;;;;14.07;10.55;;;;;;;17.01;85.13;99271.97;5032095;28;20492;-71
2023/05/27 04:43:13;;;;;;;17.83;13.02;;;;;;;16.87;84.38;99264.91;5034482;28;20057;-69
2023/05/27 04:45:39;;;;;;;16.70;12.25;;;;;;;17.11;84.06;99265.66;5034413;28;20112;-70
2023/05/27 04:48:06;;;;;;;18.23;13.23;;;;;;;17.25;83.19;99270.69;5034603;28;20132;-72
2023/05/27 04:50:31;;;;;;;20.65;12.48;;;;;;;17.45;82.49;99273.34;5034210;28;20084;-72
2023/05/27 04:52:57;;;;;;;17.05;9.73;;;;;;;17.40;79.63;99274.50;5034385;28;20053;-71
2023/05/27 04:55:22;;;;;;;15.40;10.15;;;;;;;17.44;80.79;99280.19;5023939;28;20232;-71
2023/05/27 04:57:48;;;;;;;17.52;10.30;;;;;;;17.33;80.56;99278.06;5018356;28;20033;-72
2023/05/27 05:00:35;;;;;;;14.55;9.60;;;;;;;17.26;80.45;99281.59;5031561;28;20461;-72
2023/05/27 05:03:03;;;;;;;22.27;9.23;;;;;;;17.18;80.84;99271.41;5030453;28;20029;-71
2023/05/27 05:05:29;;;;;;;23.38;10.43;;;;;;;17.24;81.02;99278.31;5025646;28;20060;-71
2023/05/27 05:07:54;;;;;;;18.88;9.75;;;;;;;17.21;81.00;99283.97;5031877;28;20021;-72
2023/05/27 05:10:20;;;;;;;11.20;8.60;;;;;;;17.31;81.56;99273.97;5032599;28;20021;-77
2023/05/27 05:12:45;;;;;;;11.90;7.63;;;;;;;17.42;79.88;99286.22;5033557;28;20026;-73
2023/05/27 05:15:12;;;;;;;11.05;8.02;;;;;;;17.67;80.06;99292.13;5032174;28;20030;-73
2023/05/27 05:17:38;;;;;;;13.27;7.93;;;;;;;17.56;80.02;99293.22;5032866;28;20403;-73
2023/05/27 05:20:05;;;;;;;12.48;8.07;;;;;;;17.68;80.19;99302.28;5033074;28;20104;-73
2023/05/27 05:22:31;;;;;;;11.00;7.30;;;;;;;17.77;78.86;99290.63;5032537;28;20457;-72
2023/05/27 05:24:56;;;;;;;12.18;7.20;;;;;;;17.59;79.39;99296.09;5033805;28;20029;-73
2023/05/27 05:27:22;;;;;;;20.15;7.50;;;;;;;17.39;81.06;99292.66;5031705;28;20066;-73
2023/05/27 05:29:47;;;;;;;8.05;5.30;;;;;;;17.51;81.32;99295.22;5030308;28;20025;-73
2023/05/27 05:32:13;;;;;;;7.70;5.63;;;;;;;17.69;80.10;99294.59;5030372;28;20017;-73
2023/05/27 05:34:39;;;;;;;24.35;6.70;;;;;;;17.73;80.60;99301.09;5031455;28;20052;-73
2023/05/27 05:37:06;;;;;;;6.10;4.78;;;;;;;17.80;79.78;99294.72;5031652;28;20078;-73
2023/05/27 05:39:32;;;;;;;7.78;5.90;;;;;;;17.67;80.98;99300.63;5031465;28;20025;-73
2023/05/27 05:41:57;;;;;;;13.40;5.28;;;;;;;17.79;80.85;99302.38;5032023;28;20514;-73
2023/05/27 05:44:24;;;;;;;9.15;5.57;;;;;;;17.96;80.20;99302.94;5032899;28;20028;-73
2023/05/27 05:46:50;;;;;;;10.20;5.22;;;;;;;18.26;79.54;99299.19;5031473;28;20021;-73
2023/05/27 05:49:15;;;;;;;14.45;6.03;;;;;;;18.36;79.47;99306.97;5031889;28;20036;-71
2023/05/27 05:51:41;;;;;;;10.18;5.82;;;;;;;18.30;79.85;99304.91;5032845;28;20133;-75
2023/05/27 05:54:06;;;;;;;6.28;4.75;;;;;;;18.15;77.95;99299.09;5033113;28;20021;-71
2023/05/27 05:56:33;;;;;;;7.90;4.90;;;;;;;18.23;78.49;99305.66;5032391;28;20034;-74
2023/05/27 05:58:58;;;;;;;37.63;7.03;;;;;;;18.22;77.77;99302.00;5029581;28;20036;-73
2023/05/27 06:01:27;;;;;;;30.83;7.03;;;;;;;18.28;79.82;99295.94;5031751;28;20108;-74
2023/05/27 06:03:53;;;;;;;4.50;3.92;;;;;;;18.31;78.89;99301.66;5029725;28;20101;-75
2023/05/27 06:06:19;;;;;;;4.75;4.35;;;;;;;18.41;77.78;99314.28;5051165;28;20024;-75
2023/05/27 06:08:45;;;;;;;11.30;5.10;;;;;;;18.53;76.93;99318.81;5046424;28;20027;-75
2023/05/27 06:11:11;;;;;;;17.00;5.95;;;;;;;18.47;77.83;99317.56;5032818;28;20037;-74
2023/05/27 06:13:36;;;;;;;8.05;4.38;;;;;;;18.44;74.41;99318.31;5032750;28;20503;-75
2023/05/27 06:16:05;;;;;;;5.97;4.50;;;;;;;18.43;74.57;99313.88;5032470;28;20018;-74
2023/05/27 06:18:30;;;;;;;7.75;4.53;;;;;;;18.48;73.48;99320.00;5029762;28;20045;-75
2023/05/27 06:20:56;;;;;;;8.35;4.32;;;;;;;18.53;74.48;99318.81;5032092;28;20033;-73
2023/05/27 06:23:22;;;;;;;9.63;4.50;;;;;;;18.53;73.50;99318.81;5032075;28;20059;-74
2023/05/27 06:25:47;;;;;;;7.10;4.85;;;;;;;18.65;74.00;99315.66;5031971;28;20030;-75
2023/05/27 06:28:12;;;;;;;6.80;5.05;;;;;;;18.74;73.84;99328.69;5032603;28;20048;-74
2023/05/27 06:30:38;;;;;;;5.68;5.03;;;;;;;18.78;73.93;99323.84;5030640;28;20033;-75
2023/05/27 06:33:04;;;;;;;6.93;4.07;;;;;;;18.62;72.57;99326.97;5030377;28;20033;-76
2023/05/27 06:35:29;;;;;;;7.28;4.38;;;;;;;18.57;71.85;99330.16;5017033;28;20048;-76
2023/05/27 06:37:55;;;;;;;7.72;4.55;;;;;;;18.70;72.85;99333.47;5026658;28;20025;-75
2023/05/27 06:40:20;;;;;;;11.38;4.32;;;;;;;18.61;72.08;99331.00;5029390;28;20114;-76
2023/05/27 06:42:46;;;;;;;4.80;3.75;;;;;;;18.56;73.13;99335.00;5030350;28;20026;-78
2023/05/27 06:45:11;;;;;;;7.15;4.88;;;;;;;18.61;73.82;99337.50;5031046;28;20060;-74
2023/05/27 06:47:38;;;;;;;12.18;4.40;;;;;;;18.73;74.00;99336.34;5030536;28;20554;-78
2023/05/27 06:50:04;;;;;;;10.25;4.78;;;;;;;18.86;73.15;99330.34;5030857;28;20041;-77
2023/05/27 06:52:30;;;;;;;11.57;4.93;;;;;;;18.94;71.80;99341.38;5031802;28;20099;-79
2023/05/27 06:54:55;;;;;;;10.60;5.07;;;;;;;18.92;71.55;99338.09;5030470;28;20404;-77
2023/05/27 06:57:21;;;;;;;7.88;4.43;;;;;;;19.05;71.49;99332.13;5031692;28;20558;-76
2023/05/27 07:03:08;;;;;;;4.95;4.18;;;;;;;19.26;71.19;99339.13;5031150;28;20037;-76
2023/05/27 07:05:34;;;;;;;6.82;4.30;;;;;;;19.29;71.25;99333.47;5030449;28;20572;-76
2023/05/27 07:07:59;;;;;;;7.00;3.50;;;;;;;19.35;68.31;99340.38;5030438;28;20029;-74
2023/05/27 07:10:25;;;;;;;6.00;3.45;;;;;;;19.40;67.05;99344.84;5029145;28;21033;-74
2023/05/27 07:12:50;;;;;;;4.00;3.10;;;;;;;19.44;67.02;99336.34;5017785;28;20485;-74
2023/05/27 07:15:16;;;;;;;6.20;3.10;;;;;;;19.60;68.04;99325.47;5010681;28;20033;-74
2023/05/27 07:17:41;;;;;;;7.57;2.90;;;;;;;19.58;67.16;99338.44;5026246;28;20112;-74
2023/05/27 07:20:07;;;;;;;7.18;3.03;;;;;;;19.82;67.05;99336.09;5029978;28;20028;-74
2023/05/27 07:22:33;;;;;;;7.20;2.60;;;;;;;19.62;66.35;99337.25;5031648;28;20045;-74
2023/05/27 07:24:58;;;;;;;6.22;2.65;;;;;;;19.69;66.77;99338.47;5027506;28;20052;-68
2023/05/27 07:27:24;;;;;;;6.32;3.03;;;;;;;19.56;67.38;99335.19;5031678;28;20025;-70
2023/05/27 07:29:49;;;;;;;6.40;3.25;;;;;;;19.84;66.38;99330.81;5031740;28;20091;-76
2023/05/27 07:32:15;;;;;;;6.40;3.15;;;;;;;20.00;66.23;99325.59;5031319;28;20025;-73
2023/05/27 07:34:40;;;;;;;9.60;2.90;;;;;;;20.05;66.99;99328.03;5031618;28;20025;-72
2023/05/27 07:37:06;;;;;;;7.45;3.65;;;;;;;20.16;66.55;99330.88;5027259;28;20121;-72
2023/05/27 07:39:31;;;;;;;6.55;3.22;;;;;;;20.41;66.01;99321.56;5028953;28;20044;-72
2023/05/27 07:41:57;;;;;;;3.65;2.95;;;;;;;20.62;65.24;99317.88;5030594;28;20017;-72
2023/05/27 07:44:22;;;;;;;4.90;2.80;;;;;;;21.07;62.15;99324.34;5030953;28;20022;-72
2023/05/27 07:46:47;;;;;;;3.00;2.63;;;;;;;21.04;60.59;99325.97;5030727;28;20029;-73
2023/05/27 07:49:14;;;;;;;3.30;3.00;;;;;;;20.79;60.26;99328.81;5030990;28;20025;-73
2023/05/27 07:51:40;;;;;;;5.45;2.85;;;;;;;20.86;60.47;99323.97;5029413;28;20129;-72
2023/05/27 07:54:06;;;;;;;3.17;2.65;;;;;;;20.87;58.86;99333.31;5016903;28;20057;-73
2023/05/27 07:56:34;;;;;;;4.35;2.70;;;;;;;20.73;60.03;99334.13;5026939;28;20144;-72
2023/05/27 07:58:59;;;;;;;4.22;3.38;;;;;;;21.12;60.98;99332.44;5027967;28;20104;-71
2023/05/27 08:01:30;;;;;;;6.40;3.53;;;;;;;21.32;60.49;99336.44;5030962;28;20115;-73
2023/05/27 08:03:56;;;;;;;9.68;4.00;;;;;;;20.94;59.18;99346.72;5031053;28;20032;-72
2023/05/27 08:06:21;;;;;;;3.95;3.35;;;;;;;21.13;58.15;99339.75;5031029;28;20412;-71
2023/05/27 08:08:47;;;;;;;9.90;4.28;;;;;;;21.38;58.82;99347.38;5031073;28;20500;-75
2023/05/27 08:11:13;;;;;;;9.88;3.15;;;;;;;21.48;55.85;99343.69;5031011;28;20029;-72
2023/05/27 08:13:38;;;;;;;6.97;2.95;;;;;;;21.56;56.50;99350.16;5030721;28;20618;-74
2023/05/27 08:16:04;;;;;;;5.55;3.30;;;;;;;21.63;55.79;99347.28;5029311;28;20060;-72
2023/05/27 08:18:29;;;;;;;6.40;2.88;;;;;;;21.65;56.56;99347.69;5031004;28;20033;-74
2023/05/27 08:20:55;;;;;;;3.47;2.75;;;;;;;21.46;56.11;99349.00;5030943;28;20036;-77
2023/05/27 08:23:20;;;;;;;4.35;3.10;;;;;;;21.48;57.30;99348.56;5029629;28;20025;-75
2023/05/27 08:25:46;;;;;;;3.53;3.22;;;;;;;21.63;56.19;99346.47;5030713;28;20108;-74
2023/05/27 08:28:11;;;;;;;6.35;3.70;;;;;;;21.68;57.74;99344.03;5030850;28;20024;-76
2023/05/27 08:30:37;;;;;;;5.72;3.08;;;;;;;21.59;58.32;99341.63;5030766;28;20135;-74
2023/05/27 08:33:03;;;;;;;5.50;3.60;;;;;;;21.65;58.13;99342.00;5028697;28;20036;-74
2023/05/27 08:35:28;;;;;;;11.77;5.70;;;;;;;21.93;58.17;99350.81;5030799;28;20025;-73
2023/05/27 08:37:53;;;;;;;12.20;6.85;;;;;;;22.21;57.61;99343.31;5030375;28;20017;-73
2023/05/27 08:40:19;;;;;;;7.20;3.88;;;;;;;21.86;58.58;99360.22;5030803;28;20025;-73
2023/05/27 08:42:46;;;;;;;5.78;4.70;;;;;;;21.54;58.90;99358.31;5030777;28;20556;-72
2023/05/27 08:45:12;;;;;;;6.30;4.75;;;;;;;21.90;58.18;99355.31;5030370;28;20032;-73
2023/05/27 08:47:41;;;;;;;9.10;4.28;;;;;;;21.99;58.38;99352.81;5029832;28;20029;-76
2023/05/27 08:50:07;;;;;;;7.03;3.63;;;;;;;21.78;59.04;99341.53;5029620;28;20029;-74
2023/05/27 08:52:36;;;;;;;4.65;3.17;;;;;;;21.68;58.94;99344.03;5030397;28;20501;-74
2023/05/27 08:55:03;;;;;;;4.80;4.15;;;;;;;21.83;57.73;99347.63;5031940;28;20034;-75
2023/05/27 08:57:30;;;;;;;4.15;3.75;;;;;;;21.72;57.51;99346.88;5034233;28;20029;-73
2023/05/27 08:59:56;;;;;;;3.15;2.75;;;;;;;21.74;58.16;99350.09;5033648;28;20022;-76
2023/05/27 09:02:22;;;;;;;6.70;3.10;;;;;;;21.67;57.49;99345.25;5030845;28;20036;-76
2023/05/27 09:04:49;;;;;;;3.78;2.60;;;;;;;21.87;56.99;99339.06;5031838;28;20108;-76
2023/05/27 09:07:15;;;;;;;28.08;7.43;;;;;;;22.18;57.46;99353.50;5034141;28;20029;-77
2023/05/27 09:09:43;;;;;;;8.55;3.20;;;;;;;22.25;57.05;99342.06;5032931;28;20029;-77
2023/05/27 09:12:08;;;;;;;6.05;3.55;;;;;;;21.92;56.95;99352.06;5033914;28;20056;-76
2023/05/27 09:14:37;;;;;;;7.63;3.22;;;;;;;22.12;57.43;99340.94;5034170;28;20077;-76
2023/05/27 09:17:08;;;;;;;3.90;2.85;;;;;;;21.95;57.40;99349.16;5033492;28;20021;-76
2023/05/27 09:19:34;;;;;;;20.52;3.90;;;;;;;22.17;57.45;99340.47;5033690;28;20025;-76
2023/05/27 09:22:01;;;;;;;7.45;2.97;;;;;;;22.24;57.63;99354.69;5032588;28;20021;-76
2023/05/27 09:24:27;;;;;;;12.35;3.30;;;;;;;22.24;58.29;99357.53;5033709;28;20029;-76
2023/05/27 09:26:54;;;;;;;8.95;4.88;;;;;;;22.26;57.52;99348.53;5033553;28;20025;-76
2023/05/27 09:29:20;;;;;;;10.73;3.97;;;;;;;22.22;56.53;99351.44;5033630;28;20036;-77
2023/05/27 09:31:45;;;;;;;8.75;3.38;;;;;;;22.20;56.77;99347.38;5033316;28;20078;-78
2023/05/27 09:34:13;;;;;;;8.90;3.78;;;;;;;22.18;56.93;99350.63;5032195;28;20477;-78
2023/05/27 09:36:49;;;;;;;6.82;3.55;;;;;;;22.28;57.18;99346.91;5031460;28;20104;-78
2023/05/27 09:39:16;;;;;;;7.45;5.18;;;;;;;22.26;57.52;99340.81;5032275;28;20025;-78
2023/05/27 09:41:42;;;;;;;8.05;4.88;;;;;;;22.22;57.85;99342.06;5033502;28;20492;-74
2023/05/27 09:44:08;;;;;;;4.65;4.05;;;;;;;22.18;58.42;99333.56;5027402;28;20093;-74
2023/05/27 09:46:35;;;;;;;6.55;3.92;;;;;;;22.19;57.63;99334.38;5032269;28;20028;-74
2023/05/27 09:49:02;;;;;;;6.18;3.40;;;;;;;22.14;58.85;99335.63;5031234;28;20025;-73
2023/05/27 09:51:28;;;;;;;5.90;3.15;;;;;;;21.97;58.16;99328.81;5031516;28;20041;-72
2023/05/27 09:53:57;;;;;;;8.13;4.30;;;;;;;22.17;58.86;99337.63;5031139;28;20466;-69
2023/05/27 09:56:27;;;;;;;5.63;3.90;;;;;;;22.01;57.69;99327.56;5033266;28;20488;-69
2023/05/27 09:58:56;;;;;;;4.57;3.95;;;;;;;22.20;57.14;99328.25;5030579;28;20048;-71
2023/05/27 10:01:28;;;;;;;5.82;3.67;;;;;;;22.37;56.73;99328.53;5028694;28;20037;-72
2023/05/27 10:03:54;;;;;;;5.28;3.65;;;;;;;22.55;56.64;99336.97;5028632;28;20440;-72
2023/05/27 10:06:21;;;;;;;7.50;3.47;;;;;;;22.41;55.91;99329.31;5030102;28;20036;-73
2023/05/27 10:08:47;;;;;;;6.25;3.40;;;;;;;22.63;54.85;99326.31;5030484;28;20026;-72
2023/05/27 10:11:13;;;;;;;6.97;4.13;;;;;;;22.71;54.71;99331.50;5030322;28;20484;-74
2023/05/27 10:13:39;;;;;;;11.45;5.40;;;;;;;22.86;53.52;99326.47;5027833;28;20034;-71
2023/05/27 10:16:05;;;;;;;8.20;5.70;;;;;;;22.90;53.39;99332.16;5027729;28;20060;-72
2023/05/27 10:18:33;;;;;;;5.38;3.83;;;;;;;22.88;52.81;99330.94;5025452;28;20052;-72
2023/05/27 10:21:00;;;;;;;8.07;3.50;;;;;;;22.59;53.50;99337.72;5027669;28;20095;-72
2023/05/27 10:23:30;;;;;;;3.65;3.15;;;;;;;22.71;53.31;99336.41;5045513;28;20108;-73
2023/05/27 10:26:06;;;;;;;3.75;3.45;;;;;;;22.86;53.27;99337.88;5033614;28;20511;-74
2023/05/27 10:28:32;;;;;;;6.57;3.15;;;;;;;23.05;53.36;99332.00;5044971;28;20538;-71
2023/05/27 10:31:18;;;;;;;5.63;4.28;;;;;;;22.98;52.23;99339.38;5038638;28;20094;-71
2023/05/27 10:33:52;;;;;;;4.15;3.35;;;;;;;22.88;52.53;99328.09;5040921;28;20040;-73
2023/05/27 10:36:26;;;;;;;12.57;3.85;;;;;;;23.06;53.56;99327.91;5042516;28;20029;-73
2023/05/27 10:39:01;;;;;;;9.82;4.30;;;;;;;23.16;52.20;99323.31;5031164;28;20083;-73
2023/05/27 10:41:27;;;;;;;6.40;3.88;;;;;;;23.09;51.93;99319.31;5047975;28;20025;-73
2023/05/27 10:43:59;;;;;;;8.10;3.53;;;;;;;23.17;52.05;99319.22;5031116;28;20033;-72
2023/05/27 10:46:26;;;;;;;6.03;3.60;;;;;;;23.13;51.41;99317.22;5028348;28;20065;-74
2023/05/27 10:48:51;;;;;;;4.43;3.63;;;;;;;23.28;51.67;99305.66;5034881;28;20049;-73
2023/05/27 10:51:17;;;;;;;8.15;3.63;;;;;;;23.20;51.99;99304.13;5030437;28;20037;-73
2023/05/27 10:53:43;;;;;;;6.97;4.63;;;;;;;23.31;51.79;99304.84;5034479;28;20648;-73
2023/05/27 10:56:12;;;;;;;5.03;4.22;;;;;;;23.45;51.35;99300.97;5036528;28;20052;-73
2023/05/27 10:58:38;;;;;;;5.25;3.97;;;;;;;23.70;50.91;99297.78;5041168;28;20033;-73
2023/05/27 11:01:10;;;;;;;6.00;3.72;;;;;;;23.94;49.96;99292.13;5043812;28;20033;-73
2023/05/27 11:03:45;;;;;;;7.65;3.83;;;;;;;23.91;49.78;99286.47;5033649;28;20025;-73
2023/05/27 11:06:11;;;;;;;5.75;3.83;;;;;;;24.04;50.06;99295.28;5044115;28;20052;-73
2023/05/27 11:08:40;;;;;;;4.45;3.47;;;;;;;24.24;48.03;99283.94;5037225;28;20056;-73
2023/05/27 11:11:07;;;;;;;6.07;3.00;;;;;;;24.39;47.04;99290.22;5045251;28;20495;-73
2023/05/27 11:13:34;;;;;;;4.38;3.22;;;;;;;24.26;46.98;99287.16;5043778;28;20457;-73
2023/05/27 11:16:01;;;;;;;4.50;3.03;;;;;;;24.19;47.57;99282.38;5036291;28;20021;-72
2023/05/27 11:18:43;;;;;;;9.57;2.92;;;;;;;24.17;46.59;99290.59;5041919;28;20458;-73
2023/05/27 11:21:10;;;;;;;6.30;3.08;;;;;;;24.21;47.59;99285.59;5045591;28;20056;-73
2023/05/27 11:23:47;;;;;;;4.82;3.00;;;;;;;24.30;46.60;99282.19;5034543;28;20083;-73
2023/05/27 11:26:23;;;;;;;8.13;2.95;;;;;;;24.44;45.77;99280.34;5040740;28;20462;-73
2023/05/27 11:28:54;;;;;;;3.03;2.67;;;;;;;24.53;43.15;99272.00;5044039;28;20032;-73
2023/05/27 11:31:22;;;;;;;7.40;2.60;;;;;;;24.58;42.80;99277.25;5033596;28;20108;-73
2023/05/27 11:33:51;;;;;;;3.70;2.83;;;;;;;24.68;40.35;99284.81;5047153;28;20029;-72